Time;durP1;ratioP1;P1;durP2;ratioP2;P2;SDS_P1;SDS_P2;PMS_P1;PMS_P2;Temp;Humidity;BMP_temperature;BMP_pressure;BME280_temperature;BME280_humidity;BME280_pressure;Samples;Min_cycle;Max_cycle;Signal;HPM_P1;HPM_P2
2023/08/27 00:00:07;;;;;;;;;;;;;;;14.85;91.84;100919.38;5053514;28;1066;-79
2023/08/27 00:02:32;;;;;;;;;;;;;;;14.82;91.79;100914.44;5035440;28;1898;-78
2023/08/27 00:04:57;;;;;;;;;;;;;;;14.83;92.33;100916.06;5057599;28;1064;-78
2023/08/27 00:07:23;;;;;;;;;;;;;;;14.83;91.84;100915.25;5043076;28;1401;-77
2023/08/27 00:09:48;;;;;;;;;;;;;;;14.80;91.84;100911.16;5042669;28;1056;-78
2023/08/27 00:12:13;;;;;;;;;;;;;;;14.78;91.78;100913.06;5051721;28;1137;-79
2023/08/27 00:14:38;;;;;;;;;;;;;;;14.76;91.77;100904.59;5028923;28;1246;-79
2023/08/27 00:17:04;;;;;;;;;;;;;;;14.74;91.85;100901.31;5052147;28;1309;-78
2023/08/27 00:19:29;;;;;;;;;;;;;;;14.74;92.08;100903.94;5036468;28;1056;-79
2023/08/27 00:21:54;;;;;;;;;;;;;;;14.73;91.95;100902.25;5047857;28;1897;-79
2023/08/27 00:24:19;;;;;;;;;;;;;;;14.74;91.86;100906.53;5049702;28;986;-79
2023/08/27 00:26:45;;;;;;;;;;;;;;;14.72;92.12;100903.25;5052203;28;1075;-79
2023/08/27 00:29:10;;;;;;;;;;;;;;;14.72;91.89;100897.19;5045113;28;952;-79
2023/08/27 00:31:35;;;;;;;;;;;;;;;14.72;91.81;100892.78;5049458;28;1169;-77
2023/08/27 00:34:00;;;;;;;;;;;;;;;14.71;92.11;100893.75;5035443;28;1257;-78
2023/08/27 00:36:25;;;;;;;;;;;;;;;14.68;91.64;100886.25;5047384;28;1290;-79
2023/08/27 00:38:51;;;;;;;;;;;;;;;14.67;91.70;100889.00;5053342;28;1315;-78
2023/08/27 00:41:16;;;;;;;;;;;;;;;14.67;91.95;100879.38;5027307;28;1918;-78
2023/08/27 00:43:41;;;;;;;;;;;;;;;14.67;92.31;100879.38;5048067;28;1575;-79
2023/08/27 00:46:07;;;;;;;;;;;;;;;14.67;91.87;100874.16;5033465;28;1158;-78
2023/08/27 00:48:32;;;;;;;;;;;;;;;14.65;91.98;100865.66;5046232;28;1351;-77
2023/08/27 00:50:58;;;;;;;;;;;;;;;14.62;92.04;100865.94;5044124;28;1192;-79
2023/08/27 00:53:23;;;;;;;;;;;;;;;14.60;92.03;100862.66;5041897;28;1322;-79
2023/08/27 00:55:50;;;;;;;;;;;;;;;14.63;92.18;100862.38;5048371;28;1411;-76
2023/08/27 00:58:16;;;;;;;;;;;;;;;14.60;92.26;100857.44;5059459;28;1044;-80
2023/08/27 01:00:41;;;;;;;;;;;;;;;14.57;92.24;100842.94;5050624;28;1048;-76
2023/08/27 01:03:06;;;;;;;;;;;;;;;14.59;92.09;100840.16;5041697;28;1902;-79
2023/08/27 01:05:32;;;;;;;;;;;;;;;14.58;92.17;100849.78;5042401;28;1095;-79
2023/08/27 01:07:58;;;;;;;;;;;;;;;14.60;92.42;100841.78;5055591;28;1220;-78
2023/08/27 01:10:34;;;;;;;;;;;;;;;14.61;92.46;100843.44;5053588;28;1096;-75
2023/08/27 01:12:59;;;;;;;;;;;;;;;14.62;92.31;100839.84;5039767;28;1362;-79
2023/08/27 01:15:25;;;;;;;;;;;;;;;14.61;92.34;100835.59;5055518;28;1207;-79
2023/08/27 01:17:51;;;;;;;;;;;;;;;14.59;92.62;100832.31;5046614;28;1296;-78
2023/08/27 01:20:16;;;;;;;;;;;;;;;14.57;92.44;100832.47;5051196;28;1156;-79
2023/08/27 01:22:41;;;;;;;;;;;;;;;14.59;92.70;100824.50;5053316;28;1972;-79
2023/08/27 01:25:08;;;;;;;;;;;;;;;14.59;92.43;100824.50;5040264;28;1448;-79
2023/08/27 01:27:43;;;;;;;;;;;;;;;14.55;92.33;100823.16;5039609;28;1485;-76
2023/08/27 01:30:12;;;;;;;;;;;;;;;14.54;92.22;100822.34;5048558;28;1060;-78
2023/08/27 01:32:47;;;;;;;;;;;;;;;14.54;92.47;100816.28;5054175;28;1125;-77
2023/08/27 01:35:14;;;;;;;;;;;;;;;14.55;92.90;100817.94;5046531;28;1129;-77
2023/08/27 01:37:39;;;;;;;;;;;;;;;14.56;92.75;100809.13;5056231;28;1162;-79
2023/08/27 01:40:05;;;;;;;;;;;;;;;14.57;92.74;100816.81;5049302;28;1146;-76
2023/08/27 01:42:31;;;;;;;;;;;;;;;14.58;92.67;100804.59;5050341;28;1898;-77
2023/08/27 01:44:56;;;;;;;;;;;;;;;14.56;92.79;100803.91;5049853;28;1184;-79
2023/08/27 01:47:22;;;;;;;;;;;;;;;14.54;92.52;100798.03;5039312;28;1157;-78
2023/08/27 01:49:48;;;;;;;;;;;;;;;14.54;93.04;100801.44;5047949;28;1160;-77
2023/08/27 01:52:13;;;;;;;;;;;;;;;14.55;92.91;100804.88;5043009;28;1249;-79
2023/08/27 01:54:38;;;;;;;;;;;;;;;14.55;92.95;100807.50;5044540;28;1148;-78
2023/08/27 01:57:04;;;;;;;;;;;;;;;14.53;92.89;100809.44;5040566;28;1254;-79
2023/08/27 01:59:29;;;;;;;;;;;;;;;14.53;92.72;100809.44;5027310;28;1426;-76
2023/08/27 02:01:54;;;;;;;;;;;;;;;14.45;92.69;100812.78;5044109;28;1959;-79
2023/08/27 02:04:20;;;;;;;;;;;;;;;14.39;92.75;100812.53;5050796;28;1249;-77
2023/08/27 02:06:45;;;;;;;;;;;;;;;14.30;92.82;100804.66;5051884;28;1218;-78
2023/08/27 02:09:10;;;;;;;;;;;;;;;14.26;92.83;100818.97;5052308;28;1303;-78
2023/08/27 02:11:35;;;;;;;;;;;;;;;14.22;92.77;100816.78;5040863;28;1138;-79
2023/08/27 02:14:00;;;;;;;;;;;;;;;14.20;92.88;100814.34;5054626;28;1261;-79
2023/08/27 02:16:25;;;;;;;;;;;;;;;14.16;92.65;100807.75;5057360;28;1143;-79
2023/08/27 02:18:51;;;;;;;;;;;;;;;14.11;92.75;100804.81;5057496;28;1079;-77
2023/08/27 02:21:16;;;;;;;;;;;;;;;14.06;92.46;100807.03;5053075;28;1898;-79
2023/08/27 02:23:42;;;;;;;;;;;;;;;14.06;92.74;100801.81;5056218;28;989;-78
2023/08/27 02:26:07;;;;;;;;;;;;;;;14.03;92.65;100796.91;5034967;28;1323;-78
2023/08/27 02:28:36;;;;;;;;;;;;;;;14.02;92.73;100796.06;5035653;28;1363;-76
2023/08/27 02:31:02;;;;;;;;;;;;;;;14.01;92.45;100788.41;5055600;28;1296;-78
2023/08/27 02:33:27;;;;;;;;;;;;;;;14.04;92.63;100793.31;5054058;28;1089;-78
2023/08/27 02:35:52;;;;;;;;;;;;;;;14.05;92.58;100789.75;5050517;28;1008;-78
2023/08/27 02:38:18;;;;;;;;;;;;;;;14.03;92.60;100796.91;5051205;28;1098;-77
2023/08/27 02:40:43;;;;;;;;;;;;;;;14.01;92.66;100794.44;5050314;28;1064;-79
2023/08/27 02:43:08;;;;;;;;;;;;;;;14.02;92.67;100800.47;5048460;28;1898;-79
2023/08/27 02:45:33;;;;;;;;;;;;;;;14.03;92.65;100802.94;5027716;28;1272;-78
2023/08/27 02:47:58;;;;;;;;;;;;;;;14.03;92.93;100802.09;5043811;28;1470;-77
2023/08/27 02:50:24;;;;;;;;;;;;;;;14.02;92.66;100808.28;5042931;28;1244;-78
2023/08/27 02:52:49;;;;;;;;;;;;;;;14.02;92.98;100800.47;5047655;28;1120;-78
2023/08/27 02:55:15;;;;;;;;;;;;;;;14.02;92.95;100805.69;5024914;28;1461;-78
2023/08/27 02:57:40;;;;;;;;;;;;;;;14.01;93.18;100798.84;5039682;28;1715;-78
2023/08/27 03:00:06;;;;;;;;;;;;;;;14.01;93.30;100798.84;5047907;28;1158;-79
2023/08/27 03:02:32;;;;;;;;;;;;;;;13.98;93.21;100801.72;5046478;28;1987;-78
2023/08/27 03:05:02;;;;;;;;;;;;;;;13.99;93.33;100811.19;5042321;28;1141;-79
2023/08/27 03:07:27;;;;;;;;;;;;;;;14.01;93.37;100819.69;5046860;28;1164;-79
2023/08/27 03:09:52;;;;;;;;;;;;;;;13.99;93.47;100832.91;5042023;28;1494;-77
2023/08/27 03:12:17;;;;;;;;;;;;;;;13.99;93.78;100826.84;5031025;28;1212;-78
2023/08/27 03:14:43;;;;;;;;;;;;;;;13.98;93.69;100830.41;5023164;28;1319;-79
2023/08/27 03:17:08;;;;;;;;;;;;;;;13.97;93.72;100834.81;5049629;28;1235;-78
2023/08/27 03:19:33;;;;;;;;;;;;;;;13.98;93.91;100838.22;5054684;28;1375;-79
2023/08/27 03:21:58;;;;;;;;;;;;;;;13.98;93.99;100830.41;5055621;28;1890;-78
2023/08/27 03:24:23;;;;;;;;;;;;;;;14.00;94.05;100834.53;5049702;28;1626;-77
2023/08/27 03:26:49;;;;;;;;;;;;;;;14.00;94.47;100836.31;5042748;28;1820;-77
2023/08/27 03:29:14;;;;;;;;;;;;;;;14.02;94.48;100840.41;5047590;28;1173;-76
2023/08/27 03:31:40;;;;;;;;;;;;;;;14.01;94.77;100845.78;5044677;28;1252;-76
2023/08/27 03:34:05;;;;;;;;;;;;;;;14.02;95.02;100842.19;5052332;28;1244;-73
2023/08/27 03:36:30;;;;;;;;;;;;;;;14.04;95.17;100855.91;5028355;28;1231;-76
2023/08/27 03:38:56;;;;;;;;;;;;;;;14.05;95.21;100844.53;5052286;28;1265;-73
2023/08/27 03:41:22;;;;;;;;;;;;;;;14.05;94.88;100841.91;5047153;28;2359;-75
2023/08/27 03:43:47;;;;;;;;;;;;;;;14.03;95.10;100843.84;5047643;28;1160;-76
2023/08/27 03:46:12;;;;;;;;;;;;;;;14.00;95.38;100844.16;5045011;28;1216;-77
2023/08/27 03:48:37;;;;;;;;;;;;;;;13.99;95.50;100847.69;5042882;28;1235;-77
2023/08/27 03:51:02;;;;;;;;;;;;;;;13.95;95.52;100830.72;5043875;28;1327;-77
2023/08/27 03:53:28;;;;;;;;;;;;;;;13.95;95.96;100835.94;5049913;28;1478;-76
2023/08/27 03:55:55;;;;;;;;;;;;;;;13.92;96.24;100839.63;5042923;28;1324;-77
2023/08/27 03:58:20;;;;;;;;;;;;;;;13.93;96.52;100838.66;5032201;28;1328;-75
2023/08/27 04:00:46;;;;;;;;;;;;;;;13.94;96.70;100839.50;5047766;28;1336;-76
2023/08/27 04:03:11;;;;;;;;;;;;;;;13.94;97.03;100821.25;5048217;28;1886;-77
2023/08/27 04:05:37;;;;;;;;;;;;;;;13.92;97.02;100815.34;5049176;28;1165;-77
2023/08/27 04:08:03;;;;;;;;;;;;;;;13.93;97.11;100824.81;5033520;28;1266;-76
2023/08/27 04:10:28;;;;;;;;;;;;;;;13.93;96.90;100822.22;5034877;28;1276;-76
2023/08/27 04:12:54;;;;;;;;;;;;;;;13.88;97.35;100829.66;5030770;28;1478;-76
2023/08/27 04:15:20;;;;;;;;;;;;;;;13.86;97.33;100823.78;5047972;28;1560;-75
2023/08/27 04:17:45;;;;;;;;;;;;;;;13.86;97.47;100805.50;5062311;28;1082;-76
2023/08/27 04:20:10;;;;;;;;;;;;;;;13.89;97.50;100802.63;5059146;28;1141;-76
2023/08/27 04:22:36;;;;;;;;;;;;;;;13.89;97.61;100800.84;5064116;28;1898;-75
2023/08/27 04:25:01;;;;;;;;;;;;;;;13.90;97.61;100797.25;5063536;28;1162;-76
2023/08/27 04:27:26;;;;;;;;;;;;;;;13.91;97.92;100803.28;5054022;28;1290;-76
2023/08/27 04:29:51;;;;;;;;;;;;;;;13.87;97.63;100801.94;5038664;28;1278;-76
2023/08/27 04:32:16;;;;;;;;;;;;;;;13.85;97.74;100803.88;5056757;28;1441;-76
2023/08/27 04:34:41;;;;;;;;;;;;;;;13.85;97.77;100814.31;5056083;28;1243;-76
2023/08/27 04:37:07;;;;;;;;;;;;;;;13.87;97.91;100812.38;5054669;28;992;-76
2023/08/27 04:39:32;;;;;;;;;;;;;;;13.90;98.00;100799.06;5037276;28;1198;-76
2023/08/27 04:41:58;;;;;;;;;;;;;;;13.89;97.99;100806.06;5051916;28;1902;-75
2023/08/27 04:44:23;;;;;;;;;;;;;;;13.91;98.13;100811.13;5051606;28;1185;-76
2023/08/27 04:46:49;;;;;;;;;;;;;;;13.90;97.87;100801.66;5041192;28;1204;-76
2023/08/27 04:49:14;;;;;;;;;;;;;;;13.87;98.12;100792.31;5053653;28;1135;-76
2023/08/27 04:51:40;;;;;;;;;;;;;;;13.86;98.08;100795.09;5052763;28;1112;-76
2023/08/27 04:54:05;;;;;;;;;;;;;;;13.83;98.31;100791.00;5055522;28;1288;-76
2023/08/27 04:56:30;;;;;;;;;;;;;;;13.80;98.16;100797.31;5047219;28;1364;-75
2023/08/27 04:58:55;;;;;;;;;;;;;;;13.80;98.20;100792.09;5056948;28;1133;-76
2023/08/27 05:01:21;;;;;;;;;;;;;;;13.81;98.20;100798.94;5046925;28;1173;-75
2023/08/27 05:03:46;;;;;;;;;;;;;;;13.80;98.13;100812.94;5048977;28;1902;-76
2023/08/27 05:06:11;;;;;;;;;;;;;;;13.76;98.14;100811.63;5050600;28;1145;-74
2023/08/27 05:08:36;;;;;;;;;;;;;;;13.69;98.40;100805.34;5048393;28;1181;-76
2023/08/27 05:11:02;;;;;;;;;;;;;;;13.64;98.65;100812.75;5052782;28;1113;-75
2023/08/27 05:13:27;;;;;;;;;;;;;;;13.67;98.69;100812.50;5046183;28;1237;-76
2023/08/27 05:15:52;;;;;;;;;;;;;;;13.70;98.55;100806.97;5033151;28;1485;-76
2023/08/27 05:18:17;;;;;;;;;;;;;;;13.71;98.70;100808.63;5044325;28;1231;-76
2023/08/27 05:20:44;;;;;;;;;;;;;;;13.69;98.66;100810.53;5050518;28;1213;-74
2023/08/27 05:23:09;;;;;;;;;;;;;;;13.67;98.63;100806.47;5044926;28;1886;-75
2023/08/27 05:25:35;;;;;;;;;;;;;;;13.65;98.88;100801.41;5041224;28;1212;-76
2023/08/27 05:28:00;;;;;;;;;;;;;;;13.63;98.83;100805.91;5047582;28;1173;-76
2023/08/27 05:30:26;;;;;;;;;;;;;;;13.59;99.14;100804.59;5049758;28;1315;-75
2023/08/27 05:32:53;;;;;;;;;;;;;;;13.60;99.10;100803.63;5056903;28;1284;-75
2023/08/27 05:35:18;;;;;;;;;;;;;;;13.58;99.12;100797.72;5044469;28;1300;-76
2023/08/27 05:37:43;;;;;;;;;;;;;;;13.56;99.30;100794.44;5045893;28;1211;-75
2023/08/27 05:40:09;;;;;;;;;;;;;;;13.55;99.56;100798.84;5051714;28;1597;-76
2023/08/27 05:42:34;;;;;;;;;;;;;;;13.58;99.40;100794.28;5059570;28;1910;-76
2023/08/27 05:44:59;;;;;;;;;;;;;;;13.59;99.49;100798.53;5028780;28;1390;-75
2023/08/27 05:47:26;;;;;;;;;;;;;;;13.60;99.79;100800.19;5051103;28;1208;-76
2023/08/27 05:49:51;;;;;;;;;;;;;;;13.60;99.76;100784.56;5050686;28;1189;-75
2023/08/27 05:52:17;;;;;;;;;;;;;;;13.61;99.69;100794.81;5047228;28;1209;-75
2023/08/27 05:54:42;;;;;;;;;;;;;;;13.60;99.86;100800.19;5053299;28;1181;-76
2023/08/27 05:57:07;;;;;;;;;;;;;;;13.61;99.95;100801.81;5029257;28;1304;-76
2023/08/27 05:59:32;;;;;;;;;;;;;;;13.63;100.00;100802.50;5054434;28;1196;-76
2023/08/27 06:01:58;;;;;;;;;;;;;;;13.65;100.00;100798.78;5049657;28;1894;-76
2023/08/27 06:04:24;;;;;;;;;;;;;;;13.69;100.00;100792.31;5050676;28;1169;-76
2023/08/27 06:06:49;;;;;;;;;;;;;;;13.73;100.00;100804.09;5052064;28;1184;-76
2023/08/27 06:09:15;;;;;;;;;;;;;;;13.79;100.00;100800.06;5046368;28;1438;-75
2023/08/27 06:11:41;;;;;;;;;;;;;;;13.82;100.00;100800.63;5049390;28;1168;-76
2023/08/27 06:14:06;;;;;;;;;;;;;;;13.85;100.00;100803.88;5045022;28;1165;-77
2023/08/27 06:16:31;;;;;;;;;;;;;;;13.84;100.00;100797.03;5030089;28;1243;-76
2023/08/27 06:18:56;;;;;;;;;;;;;;;13.89;100.00;100800.03;5044665;28;1250;-75
2023/08/27 06:21:22;;;;;;;;;;;;;;;13.90;100.00;100801.66;5027483;28;1329;-76
2023/08/27 06:23:48;;;;;;;;;;;;;;;13.93;100.00;100790.91;5034913;28;1906;-76
2023/08/27 06:26:13;;;;;;;;;;;;;;;13.96;100.00;100780.22;5034185;28;1095;-76
2023/08/27 06:28:38;;;;;;;;;;;;;;;13.97;100.00;100787.06;5051451;28;1057;-76
2023/08/27 06:31:03;;;;;;;;;;;;;;;13.99;100.00;100785.09;5031857;28;1243;-76
2023/08/27 06:33:29;;;;;;;;;;;;;;;14.02;100.00;100774.41;5050711;28;1244;-76
2023/08/27 06:35:54;;;;;;;;;;;;;;;14.04;100.00;100775.06;5031982;28;1287;-76
2023/08/27 06:38:19;;;;;;;;;;;;;;;14.06;100.00;100770.53;5055154;28;1009;-75
2023/08/27 06:40:44;;;;;;;;;;;;;;;14.08;100.00;100769.41;5041374;28;1453;-76
2023/08/27 06:43:10;;;;;;;;;;;;;;;14.12;100.00;100780.38;5052204;28;1897;-76
2023/08/27 06:45:35;;;;;;;;;;;;;;;14.18;100.00;100778.94;5046397;28;1168;-77
2023/08/27 06:48:00;;;;;;;;;;;;;;;14.22;100.00;100777.66;5031639;28;1319;-75
2023/08/27 06:50:25;;;;;;;;;;;;;;;14.25;100.00;100774.75;5045500;28;1182;-76
2023/08/27 06:52:50;;;;;;;;;;;;;;;14.30;100.00;100783.78;5030180;28;1349;-76
2023/08/27 06:55:16;;;;;;;;;;;;;;;14.34;100.00;100785.13;5053964;28;1287;-75
2023/08/27 06:57:41;;;;;;;;;;;;;;;14.41;100.00;100784.53;5030043;28;1164;-76
2023/08/27 07:00:12;;;;;;;;;;;;;;;14.47;100.00;100783.94;5039265;28;1261;-76
2023/08/27 07:02:38;;;;;;;;;;;;;;;14.53;100.00;100783.34;5041178;28;1949;-76
2023/08/27 07:05:08;;;;;;;;;;;;;;;14.57;100.00;100789.91;5045840;28;1157;-76
2023/08/27 07:07:34;;;;;;;;;;;;;;;14.60;100.00;100789.59;5044827;28;1271;-77
2023/08/27 07:09:59;;;;;;;;;;;;;;;14.66;100.00;100788.16;5046762;28;1166;-76
2023/08/27 07:12:24;;;;;;;;;;;;;;;14.70;100.00;100784.28;5028839;28;1540;-76
2023/08/27 07:14:49;;;;;;;;;;;;;;;14.74;100.00;100786.44;5043094;28;1384;-77
2023/08/27 07:17:15;;;;;;;;;;;;;;;14.75;100.00;100795.09;5045022;28;1234;-76
2023/08/27 07:19:41;;;;;;;;;;;;;;;14.78;99.86;100792.97;5028025;28;1436;-77
2023/08/27 07:22:06;;;;;;;;;;;;;;;14.83;100.00;100802.97;5043309;28;1902;-76
2023/08/27 07:24:32;;;;;;;;;;;;;;;14.88;100.00;100804.13;5045752;28;1369;-76
2023/08/27 07:26:57;;;;;;;;;;;;;;;14.94;100.00;100786.22;5043830;28;1103;-77
2023/08/27 07:29:23;;;;;;;;;;;;;;;15.02;100.00;100794.09;5037240;28;1166;-77
2023/08/27 07:31:48;;;;;;;;;;;;;;;15.10;100.00;100799.38;5040494;28;1431;-76
2023/08/27 07:34:13;;;;;;;;;;;;;;;15.17;100.00;100792.56;5043584;28;1077;-76
2023/08/27 07:36:39;;;;;;;;;;;;;;;15.24;100.00;100798.78;5049070;28;1298;-76
2023/08/27 07:39:04;;;;;;;;;;;;;;;15.31;100.00;100794.59;5053267;28;1461;-75
2023/08/27 07:41:29;;;;;;;;;;;;;;;15.37;100.00;100796.56;5051895;28;1129;-76
2023/08/27 07:43:54;;;;;;;;;;;;;;;15.41;100.00;100795.25;5052981;28;1410;-76
2023/08/27 07:46:19;;;;;;;;;;;;;;;15.48;99.73;100799.88;5055395;28;1241;-77
2023/08/27 07:48:45;;;;;;;;;;;;;;;15.55;99.94;100795.66;5061235;28;1265;-77
2023/08/27 07:51:10;;;;;;;;;;;;;;;15.64;100.00;100799.97;5057075;28;1015;-76
2023/08/27 07:53:35;;;;;;;;;;;;;;;15.70;99.55;100804.56;5054903;28;1156;-76
2023/08/27 07:56:00;;;;;;;;;;;;;;;15.77;99.28;100789.88;5064813;28;1328;-76
2023/08/27 07:58:26;;;;;;;;;;;;;;;15.83;99.01;100791.03;5054659;28;1166;-77
2023/08/27 08:00:59;;;;;;;;;;;;;;;15.84;98.89;100796.09;5039368;28;1208;-77
2023/08/27 08:03:24;;;;;;;;;;;;;;;15.85;99.12;100796.91;5035566;28;1963;-78
2023/08/27 08:05:49;;;;;;;;;;;;;;;15.87;99.20;100800.19;5033740;28;1397;-76
2023/08/27 08:08:14;;;;;;;;;;;;;;;15.87;98.89;100801.00;5056176;28;1602;-77
2023/08/27 08:10:40;;;;;;;;;;;;;;;15.82;98.67;100803.28;5036084;28;1348;-76
2023/08/27 08:13:05;;;;;;;;;;;;;;;15.81;98.63;100795.59;5036144;28;1521;-76
2023/08/27 08:15:30;;;;;;;;;;;;;;;15.85;98.76;100792.50;5050814;28;927;-75
2023/08/27 08:17:55;;;;;;;;;;;;;;;15.91;98.27;100786.63;5048065;28;1223;-77
2023/08/27 08:20:20;;;;;;;;;;;;;;;16.04;98.47;100774.88;5053338;28;1075;-77
2023/08/27 08:22:46;;;;;;;;;;;;;;;16.12;98.08;100774.91;5050884;28;1897;-77
2023/08/27 08:25:11;;;;;;;;;;;;;;;16.18;97.98;100777.69;5048661;28;1065;-76
2023/08/27 08:27:36;;;;;;;;;;;;;;;16.25;97.62;100777.84;5050312;28;1006;-78
2023/08/27 08:30:03;;;;;;;;;;;;;;;16.30;97.19;100783.41;5049519;28;989;-78
2023/08/27 08:32:28;;;;;;;;;;;;;;;16.32;96.73;100791.91;5045733;28;1181;-79
2023/08/27 08:34:54;;;;;;;;;;;;;;;16.33;96.75;100782.25;5049773;28;1049;-71
2023/08/27 08:37:19;;;;;;;;;;;;;;;16.28;96.08;100777.50;5047211;28;1071;-71
2023/08/27 08:39:44;;;;;;;;;;;;;;;16.38;96.10;100780.78;5047645;28;1085;-73
2023/08/27 08:42:28;;;;;;;;;;;;;;;16.54;96.04;100781.75;5046923;28;1972;-70
2023/08/27 08:45:13;;;;;;;;;;;;;;;16.69;96.03;100774.88;5044514;28;1087;-71
2023/08/27 08:47:38;;;;;;;;;;;;;;;16.80;95.13;100782.41;5050622;28;1214;-72
2023/08/27 08:50:05;;;;;;;;;;;;;;;16.89;95.10;100772.72;5052893;28;1150;-71
2023/08/27 08:52:34;;;;;;;;;;;;;;;16.95;94.40;100780.72;5056097;28;1056;-72
2023/08/27 08:54:59;;;;;;;;;;;;;;;16.95;94.12;100791.22;5054057;28;1200;-71
2023/08/27 08:57:27;;;;;;;;;;;;;;;17.08;93.58;100784.63;5057381;28;1119;-72
2023/08/27 08:59:52;;;;;;;;;;;;;;;17.14;93.25;100773.47;5056805;28;1164;-71
2023/08/27 09:02:18;;;;;;;;;;;;;;;17.29;92.80;100770.97;5060079;28;1968;-71
2023/08/27 09:04:43;;;;;;;;;;;;;;;17.35;92.40;100763.22;5052403;28;1166;-71
2023/08/27 09:07:09;;;;;;;;;;;;;;;17.45;92.04;100763.84;5053682;28;1188;-71
2023/08/27 09:09:36;;;;;;;;;;;;;;;17.58;91.45;100770.34;5049260;28;1168;-71
2023/08/27 09:12:01;;;;;;;;;;;;;;;17.68;90.94;100778.81;5050024;28;1168;-72
2023/08/27 09:14:28;;;;;;;;;;;;;;;17.74;89.88;100775.53;5054679;28;1114;-72
2023/08/27 09:16:54;;;;;;;;;;;;;;;17.76;89.66;100768.28;5054128;28;1097;-72
2023/08/27 09:19:19;;;;;;;;;;;;;;;17.83;88.83;100763.16;5035050;28;1240;-71
2023/08/27 09:21:45;;;;;;;;;;;;;;;17.91;89.74;100756.06;5053970;28;1902;-74
2023/08/27 09:24:10;;;;;;;;;;;;;;;18.01;88.67;100754.03;5053708;28;1078;-73
2023/08/27 09:26:35;;;;;;;;;;;;;;;18.14;88.02;100750.00;5052038;28;1201;-71
2023/08/27 09:29:01;;;;;;;;;;;;;;;18.23;87.33;100748.94;5053925;28;1100;-72
2023/08/27 09:31:37;;;;;;;;;;;;;;;18.23;86.93;100748.94;5052413;28;1173;-73
2023/08/27 09:34:03;;;;;;;;;;;;;;;18.25;85.42;100741.72;5049349;28;1179;-72
2023/08/27 09:36:28;;;;;;;;;;;;;;;18.22;85.21;100742.06;5047026;28;1228;-75
2023/08/27 09:38:53;;;;;;;;;;;;;;;18.26;85.17;100735.47;5032035;28;1273;-72
2023/08/27 09:41:18;;;;;;;;;;;;;;;18.30;84.88;100734.94;5047055;28;1148;-72
2023/08/27 09:43:49;;;;;;;;;;;;;;;18.35;84.17;100737.03;5047260;28;1910;-71
2023/08/27 09:46:15;;;;;;;;;;;;;;;18.43;84.02;100739.56;5046479;28;1616;-71
2023/08/27 09:48:40;;;;;;;;;;;;;;;18.55;83.21;100738.13;5063476;28;1143;-72
2023/08/27 09:51:05;;;;;;;;;;;;;;;18.66;82.54;100733.44;5039271;28;1171;-74
2023/08/27 09:53:31;;;;;;;;;;;;;;;18.75;81.00;100742.88;5044063;28;1559;-71
2023/08/27 09:55:57;;;;;;;;;;;;;;;18.72;80.78;100738.00;5033620;28;1136;-71
2023/08/27 09:58:25;;;;;;;;;;;;;;;18.72;80.19;100727.50;5051412;28;1141;-71
2023/08/27 10:00:57;;;;;;;;;;;;;;;18.69;80.06;100727.84;5055955;28;1288;-72
2023/08/27 10:03:22;;;;;;;;;;;;;;;18.76;79.53;100723.53;5054104;28;1886;-71
2023/08/27 10:05:49;;;;;;;;;;;;;;;18.89;79.28;100721.06;5051794;28;1068;-72
2023/08/27 10:08:14;;;;;;;;;;;;;;;18.97;78.78;100720.97;5044297;28;1506;-71
2023/08/27 10:10:39;;;;;;;;;;;;;;;18.94;78.09;100723.97;5030336;28;1160;-73
2023/08/27 10:13:05;;;;;;;;;;;;;;;18.90;78.46;100722.69;5031814;28;1498;-73
2023/08/27 10:15:31;;;;;;;;;;;;;;;18.83;77.86;100729.69;5048086;28;1063;-73
2023/08/27 10:17:57;;;;;;;;;;;;;;;18.81;78.21;100726.44;5031045;28;1276;-73
2023/08/27 10:20:23;;;;;;;;;;;;;;;18.85;78.25;100722.41;5044915;28;1134;-73
2023/08/27 10:22:49;;;;;;;;;;;;;;;18.98;77.56;100725.25;5047761;28;1898;-74
2023/08/27 10:25:17;;;;;;;;;;;;;;;18.91;76.93;100732.19;5044751;28;1334;-74
2023/08/27 10:27:44;;;;;;;;;;;;;;;18.85;76.61;100732.94;5048805;28;1385;-73
2023/08/27 10:30:10;;;;;;;;;;;;;;;18.86;76.46;100725.84;5044986;28;1140;-74
2023/08/27 10:32:35;;;;;;;;;;;;;;;18.95;74.39;100733.47;5053778;28;1070;-74
2023/08/27 10:35:05;;;;;;;;;;;;;;;18.99;74.38;100713.72;5048796;28;1084;-74
2023/08/27 10:37:31;;;;;;;;;;;;;;;19.15;74.68;100711.88;5055131;23;3582;-82
2023/08/27 10:48:09;;;;;;;;;;;;;;;19.56;73.34;100720.88;5036200;28;7215;-80
2023/08/27 10:50:47;;;;;;;;;;;;;;;19.59;71.54;100730.22;5064702;28;1308;-80
2023/08/27 10:53:13;;;;;;;;;;;;;;;19.57;72.92;100717.22;5061474;28;1117;-80
2023/08/27 10:55:40;;;;;;;;;;;;;;;19.59;71.62;100725.78;5062011;28;979;-81
2023/08/27 10:58:24;;;;;;;;;;;;;;;19.49;71.62;100727.84;5056376;28;1266;-81
2023/08/27 11:01:05;;;;;;;;;;;;;;;19.38;70.62;100765.16;5063144;28;1230;-81
2023/08/27 11:03:49;;;;;;;;;;;;;;;19.17;69.49;100778.25;5063748;28;2021;-81
2023/08/27 11:06:14;;;;;;;;;;;;;;;18.76;69.09;100797.09;5041020;28;1176;-81
2023/08/27 11:08:40;;;;;;;;;;;;;;;18.32;70.34;100810.91;5065743;28;1147;-81
2023/08/27 11:11:12;;;;;;;;;;;;;;;17.94;72.20;100828.38;5045858;28;1359;-82
2023/08/27 11:13:47;;;;;;;;;;;;;;;17.57;74.03;100821.97;5060305;28;1402;-84
2023/08/27 11:16:13;;;;;;;;;;;;;;;17.39;74.77;100839.75;5057140;28;1365;-84
2023/08/27 11:18:49;;;;;;;;;;;;;;;17.18;75.35;100842.91;5061095;28;1199;-83
2023/08/27 11:21:21;;;;;;;;;;;;;;;16.99;75.71;100839.69;5048950;28;1356;-82
2023/08/27 11:24:06;;;;;;;;;;;;;;;16.81;75.93;100833.81;5064015;28;1960;-83
2023/08/27 11:26:32;;;;;;;;;;;;;;;16.52;76.83;100823.00;5064270;28;1197;-83
2023/08/27 11:28:57;;;;;;;;;;;;;;;16.45;76.54;100823.63;5065140;28;1346;-84
2023/08/27 11:31:23;;;;;;;;;;;;;;;16.25;78.09;100818.91;5064976;28;1487;-83
2023/08/27 11:33:48;;;;;;;;;;;;;;;16.18;77.56;100829.19;5053453;28;1375;-83
2023/08/27 11:36:14;;;;;;;;;;;;;;;16.10;78.53;100837.03;5052360;28;1442;-82
2023/08/27 11:38:41;;;;;;;;;;;;;;;16.03;79.24;100817.72;5064725;28;1181;-84
2023/08/27 11:41:07;;;;;;;;;;;;;;;16.04;79.91;100811.50;5067122;28;1102;-82
2023/08/27 11:43:33;;;;;;;;;;;;;;;16.06;80.52;100820.03;5066369;28;1946;-84
2023/08/27 11:45:58;;;;;;;;;;;;;;;16.10;80.67;100805.63;5064981;28;1348;-83
2023/08/27 11:48:23;;;;;;;;;;;;;;;16.11;81.28;100812.47;5063668;28;1000;-83
2023/08/27 11:50:49;;;;;;;;;;;;;;;16.09;81.23;100801.38;5056757;28;1165;-83
2023/08/27 11:53:14;;;;;;;;;;;;;;;16.10;81.73;100797.78;5064354;28;1035;-82
2023/08/27 11:55:40;;;;;;;;;;;;;;;16.14;81.97;100797.28;5050693;28;1274;-82
2023/08/27 11:58:06;;;;;;;;;;;;;;;16.20;81.66;100801.88;5049413;28;1495;-82
2023/08/27 12:00:31;;;;;;;;;;;;;;;16.20;82.63;100811.53;5059780;28;1189;-82
2023/08/27 12:02:58;;;;;;;;;;;;;;;16.18;83.40;100816.13;5059443;28;1955;-82
2023/08/27 12:05:26;;;;;;;;;;;;;;;16.25;83.18;100824.13;5047711;28;1215;-82
2023/08/27 12:07:52;;;;;;;;;;;;;;;16.32;83.53;100820.69;5062712;28;1093;-82
2023/08/27 12:10:17;;;;;;;;;;;;;;;16.36;83.40;100811.53;5060842;28;1389;-82
2023/08/27 12:12:44;;;;;;;;;;;;;;;16.37;84.32;100813.19;5048677;28;1195;-82
2023/08/27 12:15:10;;;;;;;;;;;;;;;16.39;84.15;100799.91;5063676;28;1150;-82
2023/08/27 12:17:35;;;;;;;;;;;;;;;16.46;85.32;100791.25;5065145;28;1144;-82
2023/08/27 12:20:02;;;;;;;;;;;;;;;16.59;85.35;100796.00;5049887;28;1458;-81
2023/08/27 12:22:28;;;;;;;;;;;;;;;16.71;84.75;100799.13;5059697;28;1943;-82
2023/08/27 12:24:54;;;;;;;;;;;;;;;16.76;84.73;100796.00;5049179;28;1330;-82
2023/08/27 12:27:20;;;;;;;;;;;;;;;16.71;84.48;100793.88;5067830;28;1102;-82
2023/08/27 12:29:46;;;;;;;;;;;;;;;16.65;84.14;100799.75;5069216;28;944;-82
2023/08/27 12:32:12;;;;;;;;;;;;;;;16.50;84.24;100811.88;5065309;28;1074;-80
2023/08/27 12:34:48;;;;;;;;;;;;;;;16.45;84.76;100823.63;5070460;28;1218;-82
2023/08/27 12:37:15;;;;;;;;;;;;;;;16.45;84.31;100823.63;5069993;28;1071;-82
2023/08/27 12:39:41;;;;;;;;;;;;;;;16.43;84.45;100833.47;5051566;28;1351;-81
2023/08/27 12:42:07;;;;;;;;;;;;;;;16.39;84.20;100837.38;5058718;28;1894;-82
2023/08/27 12:44:33;;;;;;;;;;;;;;;16.29;83.91;100839.34;5047496;28;1342;-83
2023/08/27 12:46:58;;;;;;;;;;;;;;;16.23;84.12;100842.63;5068046;28;1358;-82